createdAt,value
2023-02-14T06:35:41.993Z,6.78
2023-02-14T06:38:14.724Z,13.93
2023-02-14T06:54:18.394Z,13.23
2023-02-14T06:59:57.790Z,8.15
2023-02-14T07:02:40.253Z,9.00
2023-02-14T07:05:13.580Z,10.40
2023-02-14T07:07:47.135Z,8.32
2023-02-14T07:10:22.521Z,10.55
2023-02-14T07:13:00.798Z,9.82
2023-02-14T07:15:40.634Z,8.70
2023-02-14T07:18:22.242Z,8.75
2023-02-14T07:21:12.676Z,7.13
2023-02-14T07:24:05.601Z,7.75
2023-02-14T07:26:49.424Z,6.72
2023-02-14T07:29:34.081Z,13.05
2023-02-14T07:32:07.626Z,7.53
2023-02-14T07:34:41.069Z,8.13
2023-02-14T07:37:18.106Z,6.70
2023-02-14T07:39:51.448Z,7.30
2023-02-14T07:42:28.029Z,8.10
2023-02-14T07:45:20.632Z,10.40
2023-02-14T07:47:59.518Z,6.43
2023-02-14T07:50:32.875Z,6.90
2023-02-14T07:55:51.451Z,8.02
2023-02-14T07:58:27.091Z,8.45
2023-02-14T08:01:00.226Z,8.02
2023-02-14T08:03:42.147Z,7.45
2023-02-14T08:06:15.245Z,8.88
2023-02-14T08:08:51.259Z,6.68
2023-02-14T08:11:49.822Z,7.07
2023-02-14T08:14:26.164Z,6.45
2023-02-14T08:16:59.065Z,6.13
2023-02-14T08:19:31.838Z,6.68
2023-02-14T08:22:05.048Z,7.85
2023-02-14T08:27:10.462Z,7.85
2023-02-14T08:29:43.193Z,6.53
2023-02-14T08:32:16.205Z,8.00
2023-02-14T08:34:49.168Z,9.02
2023-02-14T08:37:24.900Z,10.55
2023-02-14T08:39:57.677Z,8.80
2023-02-14T08:42:30.308Z,8.85
2023-02-14T08:45:03.226Z,6.60
2023-02-14T08:47:36.229Z,7.45
2023-02-14T08:50:12.605Z,8.88
2023-02-14T08:52:45.628Z,6.95
2023-02-14T08:55:18.423Z,8.90
2023-02-14T08:57:51.444Z,5.15
2023-02-14T09:02:57.835Z,7.57
2023-02-14T09:05:30.931Z,9.23
2023-02-14T09:08:04.326Z,6.18
2023-02-14T09:10:37.374Z,7.22
2023-02-14T09:13:10.030Z,6.07
2023-02-14T09:15:44.054Z,6.90
2023-02-14T09:18:16.877Z,8.50
2023-02-14T09:20:49.544Z,8.13
2023-02-14T09:23:22.097Z,9.80
2023-02-14T09:26:02.666Z,8.25
2023-02-14T09:28:35.944Z,9.95
2023-02-14T09:31:17.422Z,10.20
2023-02-14T09:33:51.630Z,10.90
2023-02-14T09:36:43.141Z,7.07
2023-02-14T09:39:16.048Z,9.63
2023-02-14T09:41:54.319Z,10.30
2023-02-14T09:44:31.792Z,8.57
2023-02-14T09:47:36.833Z,9.60
2023-02-14T09:50:40.578Z,10.35
2023-02-14T09:53:30.509Z,8.85
2023-02-14T09:56:06.458Z,6.75
2023-02-14T09:59:17.776Z,9.20
2023-02-14T10:02:20.073Z,6.88
2023-02-14T10:05:15.890Z,9.27
2023-02-14T10:08:20.687Z,8.95
2023-02-14T10:11:12.219Z,7.47
2023-02-14T10:14:08.744Z,6.80
2023-02-14T10:17:07.525Z,9.27
2023-02-14T10:20:02.348Z,8.82
2023-02-14T10:22:45.407Z,10.65
2023-02-14T10:25:21.171Z,7.30
2023-02-14T10:27:56.972Z,5.90
2023-02-14T10:30:39.766Z,9.23
2023-02-14T10:33:22.944Z,9.70
2023-02-14T10:36:05.681Z,7.28
2023-02-14T10:38:48.048Z,12.02
2023-02-14T10:41:45.754Z,8.10
2023-02-14T10:44:33.570Z,8.15
2023-02-14T10:47:15.737Z,11.90
2023-02-14T10:50:18.445Z,6.13
2023-02-14T10:53:05.199Z,7.18
2023-02-14T10:55:55.274Z,6.78
2023-02-14T10:58:31.895Z,9.98
2023-02-14T11:01:12.751Z,6.20
2023-02-14T11:04:04.414Z,7.30
2023-02-14T11:06:37.881Z,8.85
2023-02-14T11:09:13.740Z,8.30
2023-02-14T11:11:56.407Z,7.72
2023-02-14T11:14:36.115Z,16.13
2023-02-14T11:17:29.086Z,5.13
2023-02-14T11:20:30.793Z,6.40
2023-02-14T11:23:19.366Z,7.38
2023-02-14T11:25:56.547Z,8.23
2023-02-14T11:28:29.362Z,7.28
2023-02-14T11:31:02.918Z,13.73
2023-02-14T11:33:40.802Z,7.18
2023-02-14T11:36:17.746Z,6.38
2023-02-14T11:39:03.947Z,9.15
2023-02-14T11:41:54.789Z,6.55
2023-02-14T11:44:33.809Z,6.55
2023-02-14T11:47:43.223Z,7.43
2023-02-14T11:50:46.731Z,9.63
2023-02-14T11:53:30.105Z,8.07
2023-02-14T11:56:19.045Z,7.28
2023-02-14T11:59:10.720Z,13.38
2023-02-14T12:01:48.416Z,8.32
2023-02-14T12:04:30.763Z,10.38
2023-02-14T12:07:23.476Z,8.98
2023-02-14T12:10:41.307Z,10.45
2023-02-14T12:13:13.964Z,9.15
2023-02-14T12:15:48.878Z,10.73
2023-02-14T12:18:54.796Z,9.82
2023-02-14T12:21:44.828Z,10.88
2023-02-14T12:24:35.975Z,10.15
2023-02-14T12:27:31.168Z,6.53
2023-02-14T12:30:08.125Z,11.02
2023-02-14T12:32:54.824Z,10.45
2023-02-14T12:35:51.390Z,8.50
2023-02-14T12:38:49.367Z,8.75
2023-02-14T12:42:00.502Z,7.07
2023-02-14T12:44:46.703Z,7.72
2023-02-14T12:47:50.131Z,10.02
2023-02-14T12:50:38.885Z,7.97
2023-02-14T12:53:46.668Z,5.85
2023-02-14T12:56:26.981Z,7.53
2023-02-14T12:59:27.147Z,7.15
2023-02-14T13:02:41.338Z,8.02
2023-02-14T13:05:27.696Z,4.72
2023-02-14T13:08:16.209Z,8.77
2023-02-14T13:11:17.777Z,7.40
2023-02-14T13:14:21.261Z,7.10
2023-02-14T13:17:35.713Z,9.52
2023-02-14T13:20:44.564Z,6.55
2023-02-14T13:23:35.268Z,6.25
2023-02-14T13:26:23.145Z,8.88
2023-02-14T13:29:13.983Z,6.97
2023-02-14T13:32:32.666Z,7.82
2023-02-14T13:35:08.210Z,9.63
2023-02-14T13:37:48.392Z,6.95
2023-02-14T13:40:29.277Z,6.60
2023-02-14T13:43:52.926Z,7.10
2023-02-14T13:46:34.796Z,6.38
2023-02-14T13:49:35.931Z,6.00
2023-02-14T13:52:50.151Z,5.55
2023-02-14T13:55:43.016Z,4.75
2023-02-14T13:58:21.917Z,5.43
2023-02-14T14:00:57.877Z,7.07
2023-02-14T14:03:49.649Z,6.03
2023-02-14T14:06:22.454Z,5.63
2023-02-14T14:08:57.882Z,8.82
2023-02-14T14:11:36.526Z,3.90
2023-02-14T14:14:36.483Z,4.47
2023-02-14T14:17:21.151Z,6.03
2023-02-14T14:20:01.979Z,6.63
2023-02-14T14:23:04.103Z,4.63
2023-02-14T14:25:43.617Z,4.75
2023-02-14T14:28:25.539Z,5.63
2023-02-14T14:30:59.381Z,7.05
2023-02-14T14:33:34.473Z,5.00
2023-02-14T14:36:31.538Z,5.60
2023-02-14T14:39:04.174Z,4.28
2023-02-14T14:41:41.635Z,4.82
2023-02-14T14:44:18.827Z,5.15
2023-02-14T14:47:02.282Z,4.93
2023-02-14T14:49:35.115Z,5.80
2023-02-14T14:52:15.073Z,8.73
2023-02-14T14:54:48.286Z,6.57
2023-02-14T14:57:22.356Z,8.20
2023-02-14T15:00:08.957Z,6.38
2023-02-14T15:02:41.758Z,4.25
2023-02-14T15:05:24.129Z,7.97
2023-02-14T15:07:58.006Z,5.68
2023-02-14T15:10:32.056Z,5.93
2023-02-14T15:13:23.123Z,6.28
2023-02-14T15:15:55.821Z,5.60
2023-02-14T15:18:28.840Z,7.65
2023-02-14T15:21:03.599Z,7.47
2023-02-14T15:23:36.359Z,5.60
2023-02-14T15:26:10.427Z,7.10
2023-02-14T15:28:44.166Z,8.32
2023-02-14T15:31:17.382Z,5.82
2023-02-14T15:36:25.499Z,6.25
2023-02-14T15:38:59.109Z,7.25
2023-02-14T15:41:31.752Z,5.80
2023-02-14T15:44:04.604Z,6.47
2023-02-14T15:46:39.570Z,9.40
2023-02-14T15:49:21.110Z,5.57
2023-02-14T15:51:55.193Z,5.38
2023-02-14T15:54:42.021Z,8.27
2023-02-14T15:57:26.356Z,7.13
2023-02-14T15:59:59.156Z,10.85
2023-02-14T16:02:38.052Z,8.25
2023-02-14T16:05:23.822Z,8.38
2023-02-14T16:08:31.422Z,11.30
2023-02-14T16:11:24.072Z,6.15
2023-02-14T16:14:29.311Z,6.22
2023-02-14T16:17:03.530Z,6.40
2023-02-14T16:19:42.469Z,9.25
2023-02-14T16:22:38.597Z,6.50
2023-02-14T16:25:11.466Z,6.15
2023-02-14T16:27:44.282Z,7.80
2023-02-14T16:30:18.851Z,7.88
2023-02-14T16:32:53.944Z,7.10
2023-02-14T16:35:26.816Z,6.25
2023-02-14T16:37:59.572Z,8.63
2023-02-14T16:40:32.346Z,7.00
2023-02-14T16:43:05.060Z,6.70
2023-02-14T16:45:37.666Z,7.15
2023-02-14T16:48:10.749Z,9.98
2023-02-14T16:50:44.609Z,12.35
2023-02-14T16:53:26.749Z,8.55
2023-02-14T16:55:59.758Z,13.30
2023-02-14T16:58:36.505Z,10.07
2023-02-14T17:01:09.601Z,10.20
2023-02-14T17:06:19.495Z,7.93
2023-02-14T17:08:53.250Z,8.90
2023-02-14T17:11:28.456Z,13.40
2023-02-14T17:14:02.500Z,8.15
2023-02-14T17:16:35.439Z,12.27
2023-02-14T17:19:08.108Z,8.10
2023-02-14T17:21:41.459Z,10.60
2023-02-14T17:24:14.101Z,9.77
2023-02-14T17:26:46.919Z,16.65
2023-02-14T17:29:19.543Z,19.60
2023-02-14T17:31:52.304Z,13.20
2023-02-14T17:34:25.292Z,9.20
2023-02-14T17:36:58.053Z,15.52
2023-02-14T17:39:30.910Z,11.25
2023-02-14T17:42:03.852Z,15.00
2023-02-14T17:44:37.894Z,10.73
2023-02-14T17:47:10.676Z,13.60
2023-02-14T17:49:47.422Z,9.38
2023-02-14T17:52:22.332Z,14.65
2023-02-14T17:54:57.259Z,11.13
2023-02-14T17:57:29.961Z,11.07
2023-02-14T18:00:05.914Z,22.95
2023-02-14T18:02:45.386Z,11.40
2023-02-14T18:05:43.229Z,12.88
2023-02-14T18:08:15.879Z,10.73
2023-02-14T18:10:48.596Z,11.13
2023-02-14T18:13:21.721Z,14.95
2023-02-14T18:15:55.889Z,11.85
2023-02-14T18:18:28.664Z,15.85
2023-02-14T18:21:03.881Z,12.80
2023-02-14T18:23:37.042Z,10.95
2023-02-14T18:26:14.076Z,11.27
2023-02-14T18:28:46.893Z,11.02
2023-02-14T18:31:20.419Z,13.25
2023-02-14T18:33:53.775Z,9.77
2023-02-14T18:36:29.643Z,14.10
2023-02-14T18:39:04.037Z,8.93
2023-02-14T18:41:36.854Z,10.50
2023-02-14T18:44:09.682Z,10.93
2023-02-14T18:46:42.293Z,12.73
2023-02-14T18:49:15.779Z,12.05
2023-02-14T18:51:49.497Z,10.40
2023-02-14T18:54:22.308Z,10.45
2023-02-14T18:56:55.064Z,9.23
2023-02-14T18:59:27.830Z,11.18
2023-02-14T19:02:00.770Z,15.27
2023-02-14T19:04:33.606Z,12.98
2023-02-14T19:07:06.529Z,11.52
2023-02-14T19:09:40.497Z,8.18
2023-02-14T19:12:13.360Z,9.63
2023-02-14T19:14:46.055Z,11.32
2023-02-14T19:17:19.392Z,9.23
2023-02-14T19:19:56.094Z,10.23
2023-02-14T19:22:28.932Z,12.15
2023-02-14T19:25:02.253Z,7.65
2023-02-14T19:27:35.513Z,8.90
2023-02-14T19:30:11.433Z,8.90
2023-02-14T19:32:44.124Z,9.43
2023-02-14T19:35:17.085Z,11.40
2023-02-14T19:37:53.115Z,12.13
2023-02-14T19:40:26.653Z,9.70
2023-02-14T19:42:59.451Z,9.82
2023-02-14T19:45:32.845Z,9.38
2023-02-14T19:48:05.470Z,9.48
2023-02-14T19:50:39.737Z,11.32
2023-02-14T19:53:12.426Z,9.88
2023-02-14T19:55:45.975Z,9.75
2023-02-14T19:58:18.779Z,10.10
2023-02-14T20:00:59.833Z,8.40
2023-02-14T20:03:36.178Z,11.25
2023-02-14T20:10:37.048Z,12.02
2023-02-14T20:13:21.222Z,9.13
2023-02-14T20:15:56.136Z,9.73
2023-02-14T20:18:40.803Z,14.38
2023-02-14T20:24:42.688Z,12.18
2023-02-14T20:27:15.753Z,10.85
2023-02-14T20:29:48.703Z,9.88
2023-02-14T20:32:21.380Z,16.05
2023-02-14T20:34:54.087Z,14.57
2023-02-14T20:37:26.909Z,15.07
2023-02-14T20:40:00.974Z,9.63
2023-02-14T20:42:33.621Z,12.88
2023-02-14T20:45:06.494Z,14.25
2023-02-14T20:47:41.638Z,13.32
2023-02-14T20:50:14.389Z,13.32
2023-02-14T20:52:47.080Z,14.75
2023-02-14T20:55:19.802Z,9.68
2023-02-14T20:57:52.508Z,12.43
2023-02-14T21:00:26.037Z,10.82
2023-02-14T21:02:58.658Z,12.43
2023-02-14T21:05:31.389Z,12.25
2023-02-14T21:08:06.123Z,12.93
2023-02-14T21:10:38.852Z,9.50
2023-02-14T21:13:11.504Z,12.63
2023-02-14T21:15:44.306Z,13.15
2023-02-14T21:18:18.441Z,10.93
2023-02-14T21:20:51.280Z,10.05
2023-02-14T21:23:23.980Z,11.43
2023-02-14T21:25:56.600Z,12.18
2023-02-14T21:28:29.696Z,9.50
2023-02-14T21:31:04.586Z,8.95
2023-02-14T21:33:37.456Z,12.65
2023-02-14T21:36:17.533Z,11.73
2023-02-14T21:38:50.481Z,12.95
2023-02-14T21:41:25.688Z,10.43
2023-02-14T21:44:42.318Z,10.57
2023-02-14T21:47:14.928Z,11.52
2023-02-14T21:50:06.160Z,12.63
2023-02-14T21:52:38.862Z,13.63
2023-02-14T21:55:11.590Z,14.32
2023-02-14T21:57:44.216Z,13.45
2023-02-14T22:00:18.200Z,11.65
2023-02-14T22:02:51.559Z,14.98
2023-02-14T22:05:25.694Z,16.58
2023-02-14T22:07:58.311Z,13.70
2023-02-14T22:10:31.071Z,17.58
2023-02-14T22:13:06.388Z,17.65
2023-02-14T22:16:13.604Z,19.17
2023-02-14T22:18:49.698Z,16.42
2023-02-14T22:21:24.937Z,19.45
2023-02-14T22:23:57.626Z,19.10
2023-02-14T22:26:34.936Z,15.80
2023-02-14T22:29:09.853Z,19.13
2023-02-14T22:31:43.884Z,15.18
2023-02-14T22:34:18.346Z,17.95
2023-02-14T22:36:51.552Z,17.88
2023-02-14T22:39:24.316Z,18.83
2023-02-14T22:41:56.954Z,16.08
2023-02-14T22:44:29.707Z,15.68
2023-02-14T22:47:02.393Z,14.38
2023-02-14T22:49:34.992Z,20.90
2023-02-14T22:52:07.725Z,17.87
2023-02-14T22:54:40.303Z,18.88
2023-02-14T22:57:12.905Z,15.48
2023-02-14T22:59:45.704Z,18.33
2023-02-14T23:02:18.315Z,17.70
2023-02-14T23:04:51.312Z,18.80
2023-02-14T23:07:24.078Z,18.35
2023-02-14T23:09:56.679Z,16.98
2023-02-14T23:12:47.555Z,13.87
2023-02-14T23:15:39.084Z,18.15
2023-02-14T23:18:32.024Z,15.40
2023-02-14T23:21:27.381Z,19.43
2023-02-14T23:24:00.072Z,14.07
2023-02-14T23:26:32.712Z,20.17
2023-02-14T23:29:05.313Z,14.50
2023-02-14T23:31:38.172Z,14.73
2023-02-14T23:34:11.698Z,16.38
2023-02-14T23:36:44.627Z,14.80
2023-02-14T23:39:17.265Z,14.23
2023-02-14T23:41:50.200Z,12.80
2023-02-14T23:44:28.050Z,10.50
2023-02-14T23:47:03.267Z,15.38
2023-02-14T23:49:37.956Z,14.27
2023-02-14T23:52:12.636Z,17.05
2023-02-14T23:54:45.329Z,9.85
2023-02-14T23:57:17.961Z,11.85
2023-02-14T23:59:50.604Z,9.60
